MHLM/SAP METAR and TAF weather

Enter ICAO airport designator
Station Type Date Time Source
MHLM METAR 2019/02/16 17:00 UTC NOAA

MHLM 161700Z 22002KT 9999 FEW028 31/21 Q1011 A2986 NOSIG


Station Type Date Time Source
MHLM Decoded METAR 2019/02/16 17:00 UTC NOAA

La Mesa San Pedro Sula , Honduras (MHLM) 15-27N 087-56W 31M
Feb 16, 2019 - 12:00 PM EST / 2019.02.16 1700 UTC
Wind: from the SW (220 degrees) at 2 MPH (2 KT):0
Visibility: greater than 7 mile(s):0
Sky conditions: mostly clear
Temperature: 87 F (31 C)
Dew Point: 69 F (21 C)
Relative Humidity: 55%
Pressure (altimeter): 29.86 in. Hg (1011 hPa)
ob: MHLM 161700Z 22002KT 9999 FEW028 31/21 Q1011 A2986 NOSIG
cycle: 17

Station Type Date Time Source
MHLM TAF 2019/02/16 18:57 UTC NOAA

TAF MHLM 161600Z 1618/1718 04008KT 9999 FEW028 TX33/1620Z TN22/1712Z
BECMG 1703/1705 24003KT


Example: see airport list